createdAt,value
2017-07-14T00:00:46.704Z,0
2017-07-14T00:01:47.396Z,0
2017-07-14T00:02:48.335Z,0
2017-07-14T00:03:49.022Z,0
2017-07-14T00:04:49.708Z,0
2017-07-14T00:05:50.393Z,0
2017-07-14T00:06:51.081Z,0
2017-07-14T00:07:52.018Z,0
2017-07-14T00:08:52.702Z,0
2017-07-14T00:09:53.388Z,0
2017-07-14T00:10:54.075Z,0
2017-07-14T00:11:54.763Z,0
2017-07-14T00:12:55.699Z,0
2017-07-14T00:13:56.386Z,0
2017-07-14T00:14:57.068Z,0
2017-07-14T00:15:57.753Z,0
2017-07-14T00:16:58.436Z,0
2017-07-14T00:17:59.379Z,0
2017-07-14T00:19:00.066Z,0
2017-07-14T00:20:00.752Z,0
2017-07-14T00:21:01.438Z,0
2017-07-14T00:22:02.121Z,0
2017-07-14T00:23:03.053Z,0
2017-07-14T00:24:03.738Z,0
2017-07-14T00:25:04.428Z,0
2017-07-14T00:26:05.114Z,0
2017-07-14T00:27:05.801Z,0
2017-07-14T00:28:06.737Z,0
2017-07-14T00:29:07.427Z,0
2017-07-14T00:30:08.112Z,0
2017-07-14T00:31:08.816Z,0
2017-07-14T00:32:09.486Z,0
2017-07-14T00:33:10.423Z,0
2017-07-14T00:34:11.105Z,0
2017-07-14T00:35:11.789Z,0
2017-07-14T00:36:12.471Z,0
2017-07-14T00:37:13.158Z,0
2017-07-14T00:38:13.841Z,0
2017-07-14T00:39:14.523Z,0
2017-07-14T00:40:15.211Z,0
2017-07-14T00:41:15.898Z,0
2017-07-14T00:42:16.582Z,0
2017-07-14T00:43:17.519Z,0
2017-07-14T00:44:18.207Z,0
2017-07-14T00:45:18.896Z,0
2017-07-14T00:46:19.584Z,0
2017-07-14T00:47:20.269Z,0
2017-07-14T00:48:21.212Z,0
2017-07-14T00:49:21.897Z,0
2017-07-14T00:50:22.606Z,0
2017-07-14T00:51:23.277Z,0
2017-07-14T00:52:23.961Z,0
2017-07-14T00:53:24.900Z,0
2017-07-14T00:54:25.586Z,0
2017-07-14T00:55:26.272Z,0
2017-07-14T00:56:26.959Z,0
2017-07-14T00:57:27.647Z,0
2017-07-14T00:58:28.589Z,0
2017-07-14T00:59:29.276Z,0
2017-07-14T01:00:29.966Z,0
2017-07-14T01:01:30.655Z,0
2017-07-14T01:02:31.344Z,0
2017-07-14T01:03:32.029Z,0
2017-07-14T01:04:32.720Z,0
2017-07-14T01:05:33.421Z,0
2017-07-14T01:06:34.109Z,0
2017-07-14T01:07:34.797Z,0
2017-07-14T01:08:35.480Z,0
2017-07-14T01:09:36.170Z,0
2017-07-14T01:10:36.860Z,0
2017-07-14T01:11:37.547Z,0
2017-07-14T01:12:38.234Z,0
2017-07-14T01:13:39.177Z,0
2017-07-14T01:14:39.857Z,0
2017-07-14T01:15:40.542Z,0
2017-07-14T01:16:41.238Z,0
2017-07-14T01:17:41.925Z,0
2017-07-14T01:18:42.866Z,0
2017-07-14T01:19:43.550Z,0
2017-07-14T01:20:44.235Z,0
2017-07-14T01:21:44.946Z,0
2017-07-14T01:22:45.633Z,0
2017-07-14T01:23:46.566Z,0
2017-07-14T01:24:47.248Z,0
2017-07-14T01:25:47.933Z,0
2017-07-14T01:26:48.619Z,0
2017-07-14T01:27:49.312Z,0
2017-07-14T01:28:50.262Z,0
2017-07-14T01:29:50.944Z,0
2017-07-14T01:30:51.629Z,0
2017-07-14T01:31:52.937Z,0
2017-07-14T01:32:53.622Z,0
2017-07-14T01:33:54.558Z,0
2017-07-14T01:34:55.246Z,0
2017-07-14T01:35:55.930Z,0
2017-07-14T01:36:56.613Z,0
2017-07-14T01:37:57.302Z,0
2017-07-14T01:38:58.243Z,0
2017-07-14T01:39:58.934Z,0
2017-07-14T01:40:59.618Z,0
2017-07-14T01:42:00.302Z,0
2017-07-14T01:43:00.990Z,0
2017-07-14T01:44:01.674Z,0
2017-07-14T01:45:02.357Z,0
2017-07-14T01:46:03.043Z,0
2017-07-14T01:47:03.729Z,0
2017-07-14T01:48:04.414Z,0
2017-07-14T01:49:05.363Z,0
2017-07-14T01:50:06.059Z,0
2017-07-14T01:51:06.740Z,0
2017-07-14T01:52:07.431Z,0
2017-07-14T01:53:08.112Z,0
2017-07-14T01:54:09.046Z,0
2017-07-14T01:55:09.726Z,0
2017-07-14T01:56:10.415Z,0
2017-07-14T01:57:11.107Z,0
2017-07-14T01:58:11.793Z,0
2017-07-14T01:59:12.731Z,0
2017-07-14T02:00:13.421Z,0
2017-07-14T02:01:14.113Z,0
2017-07-14T02:02:14.802Z,0
2017-07-14T02:03:15.487Z,0
2017-07-14T02:04:16.422Z,0
2017-07-14T02:05:17.104Z,0
2017-07-14T02:06:17.787Z,0
2017-07-14T02:07:18.475Z,0
2017-07-14T02:08:19.161Z,0
2017-07-14T02:09:20.087Z,0
2017-07-14T02:10:20.771Z,0
2017-07-14T02:11:21.458Z,0
2017-07-14T02:12:22.143Z,0
2017-07-14T02:13:22.828Z,0
2017-07-14T02:14:23.769Z,0
2017-07-14T02:15:24.449Z,0
2017-07-14T02:16:25.137Z,0
2017-07-14T02:17:25.821Z,0
2017-07-14T02:18:26.504Z,0
2017-07-14T02:19:27.439Z,0
2017-07-14T02:20:28.126Z,0
2017-07-14T02:21:28.818Z,0
2017-07-14T02:22:29.501Z,0
2017-07-14T02:23:30.186Z,0
2017-07-14T02:24:31.126Z,0
2017-07-14T02:25:31.816Z,0
2017-07-14T02:26:32.501Z,0
2017-07-14T02:27:33.186Z,0
2017-07-14T02:28:33.873Z,0
2017-07-14T02:29:34.809Z,0
2017-07-14T02:30:35.497Z,0
2017-07-14T02:31:36.185Z,0
2017-07-14T02:32:36.864Z,0
2017-07-14T02:33:37.547Z,0
2017-07-14T02:34:38.483Z,0
2017-07-14T02:35:39.169Z,0
2017-07-14T02:36:39.857Z,0
2017-07-14T02:37:40.544Z,0
2017-07-14T02:38:41.249Z,0
2017-07-14T02:39:42.167Z,0
2017-07-14T02:40:42.848Z,0
2017-07-14T02:41:43.531Z,0
2017-07-14T02:42:44.220Z,0
2017-07-14T02:43:44.903Z,0
2017-07-14T02:44:45.844Z,0
2017-07-14T02:45:46.527Z,0
2017-07-14T02:46:47.215Z,0
2017-07-14T02:47:47.897Z,0
2017-07-14T02:48:48.580Z,0
2017-07-14T02:49:49.518Z,0
2017-07-14T02:50:50.203Z,0
2017-07-14T02:51:50.889Z,0
2017-07-14T02:52:51.581Z,0
2017-07-14T02:53:52.266Z,0
2017-07-14T02:54:53.203Z,0
2017-07-14T02:55:53.887Z,0
2017-07-14T02:56:54.568Z,0
2017-07-14T02:57:55.258Z,0
2017-07-14T02:58:55.945Z,0
2017-07-14T02:59:56.879Z,0
2017-07-14T03:00:57.571Z,0
2017-07-14T03:01:58.255Z,0
2017-07-14T03:02:58.939Z,0
2017-07-14T03:03:59.630Z,0
2017-07-14T03:05:00.568Z,0
2017-07-14T03:06:01.253Z,0
2017-07-14T03:07:01.937Z,0
2017-07-14T03:08:02.626Z,0
2017-07-14T03:09:03.309Z,0
2017-07-14T03:10:04.250Z,0
2017-07-14T03:11:04.935Z,0
2017-07-14T03:12:05.621Z,0
2017-07-14T03:13:06.303Z,0
2017-07-14T03:14:06.989Z,0
2017-07-14T03:15:07.922Z,0
2017-07-14T03:16:08.608Z,0
2017-07-14T03:17:09.297Z,0
2017-07-14T03:18:09.983Z,0
2017-07-14T03:19:10.666Z,0
2017-07-14T03:20:11.606Z,0
2017-07-14T03:21:12.290Z,0
2017-07-14T03:22:12.974Z,0
2017-07-14T03:23:13.662Z,0
2017-07-14T03:24:14.347Z,0
2017-07-14T03:25:15.281Z,0
2017-07-14T03:26:15.962Z,0
2017-07-14T03:27:16.654Z,0
2017-07-14T03:28:17.343Z,0
2017-07-14T03:29:18.023Z,0
2017-07-14T03:30:18.960Z,0
2017-07-14T03:31:19.644Z,0
2017-07-14T03:32:20.330Z,0
2017-07-14T03:33:21.020Z,0
2017-07-14T03:34:21.710Z,0
2017-07-14T03:35:22.647Z,0
2017-07-14T03:36:23.332Z,0
2017-07-14T03:37:24.019Z,0
2017-07-14T03:38:24.705Z,0
2017-07-14T03:39:25.407Z,0
2017-07-14T03:40:26.338Z,0
2017-07-14T03:41:27.028Z,0
2017-07-14T03:42:27.715Z,0
2017-07-14T03:43:28.401Z,0
2017-07-14T03:44:29.086Z,0
2017-07-14T03:45:30.024Z,0
2017-07-14T03:46:30.709Z,0
2017-07-14T03:47:31.393Z,0
2017-07-14T03:48:32.079Z,0
2017-07-14T03:49:32.773Z,0
2017-07-14T03:50:33.712Z,0
2017-07-14T03:51:34.404Z,0
2017-07-14T03:52:35.097Z,0
2017-07-14T03:53:35.784Z,0
2017-07-14T03:54:36.471Z,0
2017-07-14T03:55:37.408Z,0
2017-07-14T03:56:38.097Z,0
2017-07-14T03:57:38.793Z,0
2017-07-14T03:58:39.482Z,0
2017-07-14T03:59:40.172Z,0
2017-07-14T04:00:41.105Z,0
2017-07-14T04:01:41.795Z,0
2017-07-14T04:02:42.486Z,0
2017-07-14T04:03:43.173Z,5
2017-07-14T04:04:43.861Z,5
2017-07-14T04:05:44.561Z,5
2017-07-14T04:06:45.252Z,5
2017-07-14T04:07:45.949Z,5
2017-07-14T04:08:46.629Z,5
2017-07-14T04:09:47.320Z,5
2017-07-14T04:10:48.260Z,5
2017-07-14T04:11:48.948Z,5
2017-07-14T04:12:49.635Z,5
2017-07-14T04:13:50.329Z,5
2017-07-14T04:14:51.019Z,5
2017-07-14T04:15:51.956Z,5
2017-07-14T04:16:52.645Z,5
2017-07-14T04:17:53.336Z,10
2017-07-14T04:18:54.027Z,10
2017-07-14T04:19:54.713Z,10
2017-07-14T04:20:55.649Z,10
2017-07-14T04:21:56.342Z,10
2017-07-14T04:22:57.031Z,10
2017-07-14T04:23:57.729Z,15
2017-07-14T04:24:58.419Z,15
2017-07-14T04:25:59.360Z,15
2017-07-14T04:27:00.051Z,15
2017-07-14T04:28:00.746Z,15
2017-07-14T04:29:01.434Z,10
2017-07-14T04:30:02.122Z,10
2017-07-14T04:31:03.061Z,10
2017-07-14T04:32:03.752Z,15
2017-07-14T04:33:04.439Z,15
2017-07-14T04:34:05.126Z,20
2017-07-14T04:35:05.812Z,20
2017-07-14T04:36:06.750Z,25
2017-07-14T04:37:07.440Z,30
2017-07-14T04:38:08.134Z,30
2017-07-14T04:39:08.825Z,30
2017-07-14T04:40:09.527Z,30
2017-07-14T04:41:10.457Z,30
2017-07-14T04:42:11.144Z,30
2017-07-14T04:43:11.833Z,30
2017-07-14T04:44:12.520Z,35
2017-07-14T04:45:13.208Z,35
2017-07-14T04:46:14.148Z,25
2017-07-14T04:47:14.839Z,35
2017-07-14T04:48:15.532Z,35
2017-07-14T04:49:16.227Z,35
2017-07-14T04:50:16.913Z,35
2017-07-14T04:51:17.853Z,35
2017-07-14T04:52:18.544Z,40
2017-07-14T04:53:19.238Z,45
2017-07-14T04:54:19.934Z,55
2017-07-14T04:55:20.643Z,55
2017-07-14T04:56:21.567Z,55
2017-07-14T04:57:22.254Z,55
2017-07-14T04:58:22.944Z,55
2017-07-14T04:59:23.631Z,55
2017-07-14T05:00:24.324Z,50
2017-07-14T05:01:25.268Z,50
2017-07-14T05:02:25.958Z,45
2017-07-14T05:03:26.650Z,45
2017-07-14T05:04:27.353Z,40
2017-07-14T05:05:28.045Z,40
2017-07-14T05:06:28.985Z,40
2017-07-14T05:07:29.677Z,40
2017-07-14T05:08:30.366Z,40
2017-07-14T05:09:31.053Z,40
2017-07-14T05:10:31.744Z,45
2017-07-14T05:11:32.685Z,50
2017-07-14T05:12:33.379Z,50
2017-07-14T05:13:34.069Z,50
2017-07-14T05:14:34.764Z,55
2017-07-14T05:15:35.455Z,60
2017-07-14T05:16:36.400Z,60
2017-07-14T05:17:37.087Z,60
2017-07-14T05:18:37.774Z,60
2017-07-14T05:19:38.463Z,60
2017-07-14T05:20:39.151Z,60
2017-07-14T05:21:40.094Z,60
2017-07-14T05:22:40.786Z,65
2017-07-14T05:23:41.485Z,65
2017-07-14T05:24:42.178Z,65
2017-07-14T05:25:42.871Z,65
2017-07-14T05:26:43.813Z,65
2017-07-14T05:27:44.505Z,70
2017-07-14T05:28:45.204Z,75
2017-07-14T05:29:45.893Z,75
2017-07-14T05:30:46.585Z,80
2017-07-14T05:31:47.525Z,85
2017-07-14T05:32:48.226Z,85
2017-07-14T05:33:48.918Z,90
2017-07-14T05:34:49.610Z,95
2017-07-14T05:35:50.303Z,100
2017-07-14T05:36:50.994Z,100
2017-07-14T05:37:51.683Z,105
2017-07-14T05:38:52.376Z,105
2017-07-14T05:39:53.067Z,105
2017-07-14T05:40:53.759Z,105
2017-07-14T05:41:54.703Z,110
2017-07-14T05:42:55.399Z,105
2017-07-14T05:43:56.092Z,100
2017-07-14T05:44:56.785Z,100
2017-07-14T05:45:57.474Z,105
2017-07-14T05:46:58.171Z,105
2017-07-14T05:47:58.864Z,105
2017-07-14T05:48:59.555Z,105
2017-07-14T05:50:00.245Z,105
2017-07-14T05:51:00.943Z,100
2017-07-14T05:52:01.888Z,95
2017-07-14T05:53:02.576Z,95
2017-07-14T05:54:03.266Z,95
2017-07-14T05:55:03.957Z,95
2017-07-14T05:56:04.642Z,95
2017-07-14T05:57:05.581Z,95
2017-07-14T05:58:06.277Z,100
2017-07-14T05:59:06.985Z,100
2017-07-14T06:00:07.665Z,100
2017-07-14T06:01:08.359Z,105
2017-07-14T06:02:09.305Z,105
2017-07-14T06:03:09.992Z,110
2017-07-14T06:04:10.689Z,110
2017-07-14T06:05:11.380Z,110
2017-07-14T06:06:12.073Z,110
2017-07-14T06:07:13.012Z,110
2017-07-14T06:08:13.702Z,110
2017-07-14T06:09:14.398Z,110
2017-07-14T06:10:15.084Z,115
2017-07-14T06:11:15.775Z,115
2017-07-14T06:12:16.477Z,120
2017-07-14T06:13:17.170Z,120
2017-07-14T06:14:17.861Z,115
2017-07-14T06:15:18.553Z,110
2017-07-14T06:16:19.244Z,95
2017-07-14T06:17:20.188Z,100
2017-07-14T06:18:20.887Z,95
2017-07-14T06:19:21.574Z,95
2017-07-14T06:20:22.262Z,100
2017-07-14T06:21:22.953Z,100
2017-07-14T06:22:23.896Z,105
2017-07-14T06:23:24.586Z,115
2017-07-14T06:24:25.281Z,130
2017-07-14T06:25:25.987Z,140
2017-07-14T06:26:26.687Z,130
2017-07-14T06:27:27.632Z,135
2017-07-14T06:28:28.328Z,130
2017-07-14T06:29:29.046Z,120
2017-07-14T06:30:29.733Z,125
2017-07-14T06:31:30.423Z,120
2017-07-14T06:32:31.364Z,115
2017-07-14T06:33:32.065Z,115
2017-07-14T06:34:32.703Z,110
2017-07-14T06:35:33.452Z,105
2017-07-14T06:36:34.145Z,100
2017-07-14T06:37:35.086Z,100
2017-07-14T06:38:35.794Z,105
2017-07-14T06:39:36.493Z,100
2017-07-14T06:40:37.191Z,105
2017-07-14T06:41:37.899Z,110
2017-07-14T06:42:38.836Z,110
2017-07-14T06:43:39.537Z,110
2017-07-14T06:44:40.228Z,110
2017-07-14T06:45:40.922Z,100
2017-07-14T06:46:41.617Z,115
2017-07-14T06:47:42.573Z,120
2017-07-14T06:48:43.223Z,120
2017-07-14T06:49:43.968Z,115
2017-07-14T06:50:44.661Z,120
2017-07-14T06:51:45.350Z,120
2017-07-14T06:52:46.290Z,125
2017-07-14T06:53:46.994Z,125
2017-07-14T06:54:47.687Z,120
2017-07-14T06:55:48.381Z,120
2017-07-14T06:56:49.073Z,120
2017-07-14T06:57:50.013Z,120
2017-07-14T06:58:50.706Z,115
2017-07-14T06:59:51.395Z,115
2017-07-14T07:00:52.087Z,115
2017-07-14T07:01:52.782Z,115
2017-07-14T07:02:53.723Z,115
2017-07-14T07:03:54.414Z,110
2017-07-14T07:04:55.110Z,110
2017-07-14T07:05:55.802Z,115
2017-07-14T07:06:56.494Z,115
2017-07-14T07:07:57.182Z,95
2017-07-14T07:08:57.874Z,105
2017-07-14T07:09:58.564Z,105
2017-07-14T07:10:59.256Z,105
2017-07-14T07:11:59.948Z,110
2017-07-14T07:13:00.890Z,115
2017-07-14T07:14:01.581Z,115
2017-07-14T07:15:02.275Z,130
2017-07-14T07:16:02.965Z,135
2017-07-14T07:17:03.662Z,145
2017-07-14T07:18:04.605Z,145
2017-07-14T07:19:05.290Z,150
2017-07-14T07:20:05.983Z,155
2017-07-14T07:21:06.676Z,145
2017-07-14T07:22:07.367Z,140
2017-07-14T07:23:08.309Z,140
2017-07-14T07:24:09.004Z,135
2017-07-14T07:25:09.659Z,130
2017-07-14T07:26:10.384Z,135
2017-07-14T07:27:11.076Z,145
2017-07-14T07:28:12.020Z,145
2017-07-14T07:29:12.722Z,170
2017-07-14T07:30:13.413Z,185
2017-07-14T07:31:14.103Z,205
2017-07-14T07:32:14.796Z,215
2017-07-14T07:33:15.737Z,235
2017-07-14T07:34:16.430Z,235
2017-07-14T07:35:17.120Z,240
2017-07-14T07:36:17.812Z,245
2017-07-14T07:37:18.503Z,230
2017-07-14T07:38:20.135Z,230
2017-07-14T07:39:20.835Z,230
2017-07-14T07:40:21.525Z,240
2017-07-14T07:41:22.217Z,250
2017-07-14T07:42:22.914Z,250
2017-07-14T07:43:23.855Z,250
2017-07-14T07:44:24.558Z,245
2017-07-14T07:45:25.252Z,235
2017-07-14T07:46:25.945Z,215
2017-07-14T07:47:26.638Z,205
2017-07-14T07:48:27.585Z,190
2017-07-14T07:49:28.281Z,180
2017-07-14T07:50:28.987Z,175
2017-07-14T07:51:29.682Z,175
2017-07-14T07:52:30.380Z,170
2017-07-14T07:53:31.319Z,165
2017-07-14T07:54:32.013Z,160
2017-07-14T07:55:32.708Z,160
2017-07-14T07:56:33.407Z,160
2017-07-14T07:57:34.095Z,165
2017-07-14T07:58:35.042Z,170
2017-07-14T07:59:35.741Z,170
2017-07-14T08:00:36.427Z,160
2017-07-14T08:01:37.122Z,155
2017-07-14T08:02:37.814Z,160
2017-07-14T08:03:38.756Z,160
2017-07-14T08:04:39.468Z,165
2017-07-14T08:05:40.166Z,175
2017-07-14T08:06:40.871Z,170
2017-07-14T08:07:41.565Z,160
2017-07-14T08:08:42.506Z,160
2017-07-14T08:09:43.215Z,150
2017-07-14T08:10:43.915Z,145
2017-07-14T08:11:44.610Z,150
2017-07-14T08:12:45.301Z,155
2017-07-14T08:13:45.996Z,165
2017-07-14T08:14:46.704Z,150
2017-07-14T08:15:47.398Z,145
2017-07-14T08:16:48.092Z,145
2017-07-14T08:17:48.785Z,145
2017-07-14T08:18:49.737Z,130
2017-07-14T08:19:50.439Z,125
2017-07-14T08:20:51.129Z,135
2017-07-14T08:21:51.819Z,135
2017-07-14T08:22:52.513Z,135
2017-07-14T08:23:53.459Z,140
2017-07-14T08:24:54.156Z,145
2017-07-14T08:25:54.849Z,145
2017-07-14T08:26:55.541Z,145
2017-07-14T08:27:56.235Z,145
2017-07-14T08:28:57.180Z,145
2017-07-14T08:29:57.876Z,145
2017-07-14T08:30:58.574Z,140
2017-07-14T08:31:59.271Z,140
2017-07-14T08:32:59.983Z,145
2017-07-14T08:34:00.903Z,145
2017-07-14T08:35:01.595Z,140
2017-07-14T08:36:02.293Z,150
2017-07-14T08:37:02.995Z,145
2017-07-14T08:38:03.689Z,155
2017-07-14T08:39:04.390Z,150
2017-07-14T08:40:05.077Z,160
2017-07-14T08:41:05.775Z,170
2017-07-14T08:42:06.468Z,175
2017-07-14T08:43:07.161Z,190
2017-07-14T08:44:08.102Z,200
2017-07-14T08:45:08.795Z,200
2017-07-14T08:46:09.492Z,195
2017-07-14T08:47:10.188Z,190
2017-07-14T08:48:10.882Z,175
2017-07-14T08:49:11.826Z,170
2017-07-14T08:50:12.523Z,165
2017-07-14T08:51:13.213Z,180
2017-07-14T08:52:13.906Z,185
2017-07-14T08:53:14.597Z,215
2017-07-14T08:54:15.539Z,220
2017-07-14T08:55:16.230Z,225
2017-07-14T08:56:16.921Z,235
2017-07-14T08:57:17.614Z,235
2017-07-14T08:58:18.308Z,235
2017-07-14T08:59:19.256Z,255
2017-07-14T09:00:19.956Z,250
2017-07-14T09:01:20.656Z,240
2017-07-14T09:02:21.345Z,230
2017-07-14T09:03:22.045Z,225
2017-07-14T09:04:22.995Z,215
2017-07-14T09:05:23.688Z,210
2017-07-14T09:06:24.381Z,235
2017-07-14T09:07:25.077Z,225
2017-07-14T09:08:25.783Z,230
2017-07-14T09:09:26.729Z,260
2017-07-14T09:10:27.425Z,240
2017-07-14T09:11:28.118Z,205
2017-07-14T09:12:28.810Z,185
2017-07-14T09:13:29.507Z,185
2017-07-14T09:14:30.454Z,185
2017-07-14T09:15:31.145Z,190
2017-07-14T09:16:31.842Z,220
2017-07-14T09:17:32.543Z,225
2017-07-14T09:18:33.252Z,235
2017-07-14T09:19:34.198Z,265
2017-07-14T09:20:34.883Z,285
2017-07-14T09:21:35.590Z,310
2017-07-14T09:22:36.292Z,345
2017-07-14T09:23:36.982Z,360
2017-07-14T09:24:37.928Z,390
2017-07-14T09:25:38.627Z,375
2017-07-14T09:26:39.312Z,345
2017-07-14T09:27:40.003Z,330
2017-07-14T09:28:40.698Z,330
2017-07-14T09:29:41.650Z,295
2017-07-14T09:30:42.346Z,310
2017-07-14T09:31:43.037Z,340
2017-07-14T09:32:43.732Z,360
2017-07-14T09:33:44.429Z,365
2017-07-14T09:34:45.379Z,355
2017-07-14T09:35:46.069Z,320
2017-07-14T09:36:46.765Z,280
2017-07-14T09:37:47.459Z,305
2017-07-14T09:38:48.151Z,340
2017-07-14T09:39:49.095Z,350
2017-07-14T09:40:49.801Z,370
2017-07-14T09:41:50.503Z,355
2017-07-14T09:42:51.151Z,365
2017-07-14T09:43:51.910Z,365
2017-07-14T09:44:52.856Z,350
2017-07-14T09:45:53.553Z,345
2017-07-14T09:46:54.249Z,370
2017-07-14T09:47:54.941Z,350
2017-07-14T09:48:55.635Z,350
2017-07-14T09:49:56.582Z,350
2017-07-14T09:50:57.289Z,375
2017-07-14T09:51:57.984Z,375
2017-07-14T09:52:58.685Z,360
2017-07-14T09:53:59.382Z,330
2017-07-14T09:55:00.330Z,320
2017-07-14T09:56:01.048Z,325
2017-07-14T09:57:01.743Z,305
2017-07-14T09:58:02.442Z,290
2017-07-14T09:59:03.136Z,255
2017-07-14T10:00:04.078Z,195
2017-07-14T10:01:04.780Z,185
2017-07-14T10:02:05.488Z,205
2017-07-14T10:03:06.196Z,240
2017-07-14T10:04:06.889Z,245
2017-07-14T10:05:07.841Z,220
2017-07-14T10:06:08.538Z,165
2017-07-14T10:07:09.230Z,130
2017-07-14T10:08:09.925Z,120
2017-07-14T10:09:10.623Z,120
2017-07-14T10:10:11.566Z,125
2017-07-14T10:11:12.260Z,120
2017-07-14T10:12:12.958Z,130
2017-07-14T10:13:13.654Z,140
2017-07-14T10:14:14.353Z,160
2017-07-14T10:15:15.299Z,180
2017-07-14T10:16:16.008Z,190
2017-07-14T10:17:16.705Z,190
2017-07-14T10:18:17.405Z,170
2017-07-14T10:19:18.096Z,175
2017-07-14T10:20:19.044Z,190
2017-07-14T10:21:19.737Z,235
2017-07-14T10:22:20.439Z,255
2017-07-14T10:23:21.131Z,230
2017-07-14T10:24:21.828Z,200
2017-07-14T10:25:22.777Z,180
2017-07-14T10:26:23.383Z,165
2017-07-14T10:27:24.174Z,165
2017-07-14T10:28:24.864Z,170
2017-07-14T10:29:25.560Z,170
2017-07-14T10:30:26.505Z,165
2017-07-14T10:31:27.204Z,160
2017-07-14T10:32:27.899Z,150
2017-07-14T10:33:28.595Z,140
2017-07-14T10:34:29.289Z,140
2017-07-14T10:35:30.243Z,140
2017-07-14T10:36:30.939Z,140
2017-07-14T10:37:31.635Z,140
2017-07-14T10:38:32.333Z,155
2017-07-14T10:39:33.031Z,155
2017-07-14T10:40:33.980Z,150
2017-07-14T10:41:34.666Z,150
2017-07-14T10:42:35.359Z,155
2017-07-14T10:43:36.051Z,165
2017-07-14T10:44:36.748Z,175
2017-07-14T10:45:37.695Z,180
2017-07-14T10:46:38.386Z,190
2017-07-14T10:47:39.080Z,215
2017-07-14T10:48:39.782Z,245
2017-07-14T10:49:40.478Z,280
2017-07-14T10:50:41.423Z,280
2017-07-14T10:51:42.129Z,265
2017-07-14T10:52:42.821Z,275
2017-07-14T10:53:43.514Z,315
2017-07-14T10:54:44.205Z,375
2017-07-14T10:55:44.899Z,415
2017-07-14T10:56:45.592Z,395
2017-07-14T10:57:46.290Z,380
2017-07-14T10:58:46.987Z,360
2017-07-14T10:59:47.686Z,360
2017-07-14T11:00:48.383Z,395
2017-07-14T11:01:49.083Z,435
2017-07-14T11:02:49.777Z,440
2017-07-14T11:03:50.477Z,410
2017-07-14T11:04:51.179Z,400
2017-07-14T11:05:52.129Z,405
2017-07-14T11:06:52.831Z,405
2017-07-14T11:07:53.526Z,380
2017-07-14T11:08:54.228Z,365
2017-07-14T11:09:54.927Z,360
2017-07-14T11:10:55.872Z,350
2017-07-14T11:11:56.560Z,350
2017-07-14T11:12:57.254Z,345
2017-07-14T11:13:57.951Z,335
2017-07-14T11:14:58.646Z,315
2017-07-14T11:15:59.595Z,305
2017-07-14T11:17:00.294Z,305
2017-07-14T11:18:00.995Z,305
2017-07-14T11:19:01.694Z,300
2017-07-14T11:20:02.398Z,295
2017-07-14T11:21:03.348Z,295
2017-07-14T11:22:04.049Z,285
2017-07-14T11:23:04.743Z,270
2017-07-14T11:24:05.441Z,260
2017-07-14T11:25:06.143Z,250
2017-07-14T11:26:07.086Z,245
2017-07-14T11:27:07.790Z,240
2017-07-14T11:28:08.485Z,245
2017-07-14T11:29:09.180Z,260
2017-07-14T11:30:09.876Z,275
2017-07-14T11:31:10.827Z,280
2017-07-14T11:32:11.480Z,285
2017-07-14T11:33:12.229Z,300
2017-07-14T11:34:12.931Z,295
2017-07-14T11:35:13.632Z,295
2017-07-14T11:36:14.579Z,295
2017-07-14T11:37:15.283Z,305
2017-07-14T11:38:15.978Z,305
2017-07-14T11:39:16.674Z,300
2017-07-14T11:40:17.376Z,295
2017-07-14T11:41:18.074Z,270
2017-07-14T11:42:18.767Z,270
2017-07-14T11:43:19.461Z,170
2017-07-14T11:44:20.164Z,200
2017-07-14T11:45:20.853Z,235
2017-07-14T11:46:21.802Z,240
2017-07-14T11:47:22.500Z,180
2017-07-14T11:48:23.203Z,255
2017-07-14T11:49:23.899Z,235
2017-07-14T11:50:24.594Z,250
2017-07-14T11:51:25.542Z,185
2017-07-14T11:52:26.237Z,230
2017-07-14T11:53:26.939Z,305
2017-07-14T11:54:27.633Z,300
2017-07-14T11:55:28.329Z,305
2017-07-14T11:56:29.277Z,325
2017-07-14T11:57:29.983Z,345
2017-07-14T11:58:30.677Z,360
2017-07-14T11:59:31.369Z,395
2017-07-14T12:00:32.066Z,460
2017-07-14T12:01:33.012Z,510
2017-07-14T12:02:33.712Z,590
2017-07-14T12:03:34.407Z,595
2017-07-14T12:04:35.108Z,585
2017-07-14T12:05:35.805Z,505
2017-07-14T12:06:36.755Z,485
2017-07-14T12:07:37.456Z,480
2017-07-14T12:08:38.158Z,460
2017-07-14T12:09:38.858Z,485
2017-07-14T12:10:39.556Z,495
2017-07-14T12:11:40.504Z,470
2017-07-14T12:12:41.200Z,475
2017-07-14T12:13:41.914Z,475
2017-07-14T12:14:42.618Z,510
2017-07-14T12:15:43.316Z,540
2017-07-14T12:16:44.271Z,570
2017-07-14T12:17:44.971Z,545
2017-07-14T12:18:45.667Z,495
2017-07-14T12:19:46.362Z,475
2017-07-14T12:20:47.059Z,435
2017-07-14T12:21:48.009Z,415
2017-07-14T12:22:48.708Z,415
2017-07-14T12:23:49.399Z,425
2017-07-14T12:24:50.096Z,420
2017-07-14T12:25:50.788Z,260
2017-07-14T12:26:51.746Z,250
2017-07-14T12:27:52.450Z,350
2017-07-14T12:28:53.145Z,340
2017-07-14T12:29:53.846Z,330
2017-07-14T12:30:54.538Z,340
2017-07-14T12:31:55.487Z,340
2017-07-14T12:32:56.189Z,355
2017-07-14T12:33:56.884Z,380
2017-07-14T12:34:57.576Z,425
2017-07-14T12:35:58.277Z,505
2017-07-14T12:36:59.222Z,635
2017-07-14T12:37:59.917Z,610
2017-07-14T12:39:00.620Z,625
2017-07-14T12:40:01.321Z,560
2017-07-14T12:41:02.017Z,605
2017-07-14T12:42:02.965Z,650
2017-07-14T12:43:03.661Z,575
2017-07-14T12:44:04.360Z,550
2017-07-14T12:45:05.060Z,520
2017-07-14T12:46:05.759Z,600
2017-07-14T12:47:06.706Z,620
2017-07-14T12:48:07.399Z,535
2017-07-14T12:49:08.100Z,585
2017-07-14T12:50:08.796Z,570
2017-07-14T12:51:09.492Z,565
2017-07-14T12:52:10.453Z,540
2017-07-14T12:53:11.152Z,470
2017-07-14T12:54:11.839Z,560
2017-07-14T12:55:12.538Z,560
2017-07-14T12:56:13.244Z,550
2017-07-14T12:57:14.191Z,545
2017-07-14T12:58:14.890Z,520
2017-07-14T12:59:15.589Z,480
2017-07-14T13:00:16.311Z,485
2017-07-14T13:01:16.985Z,520
2017-07-14T13:02:17.938Z,510
2017-07-14T13:03:18.637Z,475
2017-07-14T13:04:19.337Z,350
2017-07-14T13:05:20.035Z,340
2017-07-14T13:06:20.741Z,350
2017-07-14T13:07:21.435Z,460
2017-07-14T13:08:22.131Z,440
2017-07-14T13:09:22.832Z,420
2017-07-14T13:10:23.532Z,430
2017-07-14T13:11:24.229Z,425
2017-07-14T13:12:25.186Z,435
2017-07-14T13:13:25.884Z,440
2017-07-14T13:14:26.585Z,450
2017-07-14T13:15:27.278Z,455
2017-07-14T13:16:27.981Z,430
2017-07-14T13:17:28.941Z,435
2017-07-14T13:18:29.642Z,480
2017-07-14T13:19:30.341Z,490
2017-07-14T13:20:31.040Z,345
2017-07-14T13:21:31.741Z,395
2017-07-14T13:22:32.700Z,405
2017-07-14T13:23:33.401Z,380
2017-07-14T13:24:34.104Z,370
2017-07-14T13:25:34.804Z,365
2017-07-14T13:26:35.496Z,365
2017-07-14T13:27:36.443Z,360
2017-07-14T13:28:37.141Z,350
2017-07-14T13:29:37.838Z,365
2017-07-14T13:30:38.537Z,370
2017-07-14T13:31:39.247Z,370
2017-07-14T13:32:40.191Z,370
2017-07-14T13:33:40.898Z,370
2017-07-14T13:34:41.591Z,375
2017-07-14T13:35:42.287Z,375
2017-07-14T13:36:42.988Z,370
2017-07-14T13:37:43.945Z,365
2017-07-14T13:38:44.759Z,365
2017-07-14T13:39:45.454Z,370
2017-07-14T13:40:46.156Z,365
2017-07-14T13:41:46.863Z,365
2017-07-14T13:42:47.811Z,370
2017-07-14T13:43:48.514Z,370
2017-07-14T13:44:49.205Z,380
2017-07-14T13:45:49.900Z,380
2017-07-14T13:46:50.605Z,385
2017-07-14T13:47:51.556Z,390
2017-07-14T13:48:52.250Z,395
2017-07-14T13:49:52.942Z,400
2017-07-14T13:50:53.638Z,405
2017-07-14T13:51:54.335Z,405
2017-07-14T13:52:55.290Z,415
2017-07-14T13:53:55.987Z,420
2017-07-14T13:54:56.691Z,430
2017-07-14T13:55:57.394Z,430
2017-07-14T13:56:58.100Z,450
2017-07-14T13:57:59.047Z,410
2017-07-14T13:58:59.751Z,410
2017-07-14T14:00:00.443Z,455
2017-07-14T14:01:01.141Z,485
2017-07-14T14:02:01.842Z,425
2017-07-14T14:03:02.796Z,630
2017-07-14T14:04:03.497Z,2035
2017-07-14T14:05:04.206Z,2575
2017-07-14T14:06:04.907Z,2510
2017-07-14T14:07:05.620Z,2645
2017-07-14T14:08:06.572Z,2935
2017-07-14T14:09:07.276Z,2945
2017-07-14T14:10:07.978Z,2765
2017-07-14T14:11:08.681Z,3020
2017-07-14T14:12:09.378Z,3110
2017-07-14T14:13:10.344Z,2710
2017-07-14T14:14:11.056Z,2920
2017-07-14T14:15:11.759Z,3065
2017-07-14T14:16:12.461Z,3185
2017-07-14T14:17:13.165Z,3310